createdAt,value
2023-03-29T00:00:16.894Z,6.00
2023-03-29T00:03:05.038Z,7.10
2023-03-29T00:05:36.173Z,7.50
2023-03-29T00:08:04.738Z,7.40
2023-03-29T00:10:34.247Z,6.60
2023-03-29T00:13:03.226Z,6.80
2023-03-29T00:15:31.395Z,6.90
2023-03-29T00:17:59.432Z,7.90
2023-03-29T00:20:28.922Z,7.90
2023-03-29T00:22:57.067Z,7.90
2023-03-29T00:25:25.165Z,8.50
2023-03-29T00:27:53.331Z,8.90
2023-03-29T00:30:21.285Z,9.30
2023-03-29T00:32:49.267Z,11.70
2023-03-29T00:35:17.422Z,9.90
2023-03-29T00:37:47.165Z,10.40
2023-03-29T00:40:15.515Z,10.00
2023-03-29T00:42:46.670Z,11.30
2023-03-29T00:45:30.479Z,10.30
2023-03-29T00:48:02.967Z,11.00
2023-03-29T00:50:37.991Z,12.00
2023-03-29T00:53:13.116Z,11.60
2023-03-29T00:55:47.912Z,9.90
2023-03-29T00:58:21.475Z,11.70
2023-03-29T01:00:58.043Z,11.00
2023-03-29T01:03:33.059Z,11.00
2023-03-29T01:06:06.014Z,11.70
2023-03-29T01:09:01.200Z,11.30
2023-03-29T01:11:39.758Z,10.90
2023-03-29T01:14:18.347Z,12.90
2023-03-29T01:16:46.713Z,12.40
2023-03-29T01:19:21.752Z,11.80
2023-03-29T01:21:56.064Z,13.60
2023-03-29T01:24:42.081Z,12.60
2023-03-29T01:27:32.298Z,13.30
2023-03-29T01:30:08.970Z,12.70
2023-03-29T01:32:52.097Z,12.10
2023-03-29T01:35:26.920Z,12.30
2023-03-29T01:38:08.844Z,11.90
2023-03-29T01:40:36.933Z,11.40
2023-03-29T01:43:30.836Z,12.50
2023-03-29T01:46:15.056Z,13.20
2023-03-29T01:49:02.195Z,11.40
2023-03-29T01:51:38.143Z,11.70
2023-03-29T01:54:21.468Z,12.80
2023-03-29T01:56:52.275Z,12.80
2023-03-29T01:59:26.279Z,11.70
2023-03-29T02:02:00.090Z,11.30
2023-03-29T02:04:34.715Z,11.40
2023-03-29T02:07:06.119Z,12.00
2023-03-29T02:09:37.270Z,11.30
2023-03-29T02:12:08.011Z,10.90
2023-03-29T02:14:36.489Z,11.50
2023-03-29T02:17:16.999Z,10.40
2023-03-29T02:19:51.600Z,12.60
2023-03-29T02:22:27.000Z,11.20
2023-03-29T02:24:59.367Z,12.80
2023-03-29T02:27:29.644Z,11.70
2023-03-29T02:29:58.726Z,11.70
2023-03-29T02:32:35.319Z,13.70
2023-03-29T02:35:19.109Z,11.30
2023-03-29T02:37:51.352Z,11.60
2023-03-29T02:40:21.549Z,12.70
2023-03-29T02:42:49.969Z,12.00
2023-03-29T02:45:18.827Z,12.80
2023-03-29T02:47:51.885Z,12.20
2023-03-29T02:50:21.112Z,11.80
2023-03-29T02:52:56.117Z,13.80
2023-03-29T02:55:26.383Z,12.80
2023-03-29T02:57:54.328Z,12.30
2023-03-29T03:00:23.373Z,12.80
2023-03-29T03:02:52.240Z,12.90
2023-03-29T03:05:20.887Z,11.90
2023-03-29T03:07:49.003Z,12.80
2023-03-29T03:10:17.322Z,12.50
2023-03-29T03:12:45.374Z,12.90
2023-03-29T03:15:13.572Z,12.60
2023-03-29T03:17:41.774Z,12.10
2023-03-29T03:20:14.361Z,13.20
2023-03-29T03:22:48.864Z,13.60
2023-03-29T03:25:19.621Z,13.00
2023-03-29T03:27:49.765Z,12.60
2023-03-29T03:30:19.139Z,14.20
2023-03-29T03:33:05.981Z,13.80
2023-03-29T03:35:49.250Z,13.30
2023-03-29T03:38:17.529Z,13.90
2023-03-29T03:40:54.099Z,13.60
2023-03-29T03:43:22.803Z,14.00
2023-03-29T03:45:51.612Z,15.50
2023-03-29T03:48:25.132Z,14.90
2023-03-29T03:51:16.229Z,15.80
2023-03-29T03:53:44.566Z,15.70
2023-03-29T03:56:13.521Z,16.70
2023-03-29T03:59:00.290Z,12.40
2023-03-29T04:01:29.323Z,15.00
2023-03-29T04:04:03.116Z,15.10
2023-03-29T04:06:32.624Z,14.30
2023-03-29T04:09:20.246Z,14.30
2023-03-29T04:11:56.183Z,14.70
2023-03-29T04:14:24.265Z,14.70
2023-03-29T04:17:05.749Z,14.60
2023-03-29T04:20:12.928Z,14.90
2023-03-29T04:22:41.985Z,16.40
2023-03-29T04:25:11.766Z,16.50
2023-03-29T04:27:51.256Z,16.60
2023-03-29T04:30:29.391Z,16.20
2023-03-29T04:33:12.322Z,15.10
2023-03-29T04:35:42.608Z,16.80
2023-03-29T04:38:14.346Z,17.40
2023-03-29T04:40:44.176Z,15.20
2023-03-29T04:43:18.659Z,15.40
2023-03-29T04:45:55.252Z,17.40
2023-03-29T04:51:11.030Z,17.10
2023-03-29T04:53:38.955Z,18.70
2023-03-29T04:56:08.113Z,18.10
2023-03-29T04:59:01.751Z,19.00
2023-03-29T05:01:29.834Z,19.10
2023-03-29T05:03:59.468Z,19.20
2023-03-29T05:06:36.882Z,18.30
2023-03-29T05:09:08.979Z,17.80
2023-03-29T05:11:49.157Z,20.50
2023-03-29T05:14:17.436Z,17.40
2023-03-29T05:16:45.645Z,17.80
2023-03-29T05:19:13.745Z,17.80
2023-03-29T05:21:46.414Z,18.80
2023-03-29T05:24:17.846Z,18.70
2023-03-29T05:26:57.079Z,16.90
2023-03-29T05:29:25.664Z,16.10
2023-03-29T05:31:59.848Z,15.60
2023-03-29T05:34:29.792Z,16.00
2023-03-29T05:36:59.533Z,13.60
2023-03-29T05:39:29.243Z,14.70
2023-03-29T05:41:57.403Z,15.60
2023-03-29T05:44:29.517Z,14.60
2023-03-29T05:47:03.356Z,14.00
2023-03-29T05:49:31.997Z,13.50
2023-03-29T05:52:07.615Z,14.50
2023-03-29T05:54:36.261Z,11.90
2023-03-29T05:57:06.320Z,13.10
2023-03-29T05:59:34.640Z,10.30
2023-03-29T06:02:05.219Z,12.40
2023-03-29T06:04:34.089Z,12.10
2023-03-29T06:07:25.635Z,13.00
2023-03-29T06:10:12.500Z,14.50
2023-03-29T06:12:42.252Z,13.20
2023-03-29T06:15:10.879Z,15.00
2023-03-29T06:17:48.213Z,14.00
2023-03-29T06:20:17.608Z,13.30
2023-03-29T06:22:50.071Z,13.80
2023-03-29T06:25:19.660Z,11.30
2023-03-29T06:27:49.083Z,11.30
2023-03-29T06:30:19.071Z,12.00
2023-03-29T06:32:50.659Z,11.30
2023-03-29T06:35:54.229Z,12.70
2023-03-29T06:38:28.602Z,12.30
2023-03-29T06:41:07.855Z,11.20
2023-03-29T06:43:59.024Z,9.90
2023-03-29T06:46:33.346Z,10.50
2023-03-29T06:49:03.392Z,11.70
2023-03-29T06:51:36.797Z,10.20
2023-03-29T06:54:05.624Z,9.80
2023-03-29T06:56:34.325Z,8.60
2023-03-29T06:59:05.435Z,7.90
2023-03-29T07:01:38.916Z,8.20
2023-03-29T07:04:32.357Z,9.60
2023-03-29T07:07:20.757Z,8.50
2023-03-29T07:09:55.729Z,10.30
2023-03-29T07:12:27.595Z,9.50
2023-03-29T07:14:59.218Z,10.60
2023-03-29T07:17:41.085Z,9.30
2023-03-29T07:20:13.778Z,11.00
2023-03-29T07:22:58.888Z,8.90
2023-03-29T07:25:27.924Z,8.50
2023-03-29T07:27:56.086Z,9.20
2023-03-29T07:30:32.026Z,8.20
2023-03-29T07:33:12.585Z,9.00
2023-03-29T07:35:52.805Z,9.00
2023-03-29T07:38:21.226Z,9.30
2023-03-29T07:40:54.574Z,10.50
2023-03-29T07:43:42.427Z,9.50
2023-03-29T07:46:11.518Z,8.40
2023-03-29T07:48:40.131Z,8.70
2023-03-29T07:51:10.799Z,7.40
2023-03-29T07:54:06.503Z,8.30
2023-03-29T07:56:38.287Z,8.30
2023-03-29T07:59:16.684Z,8.10
2023-03-29T08:01:46.833Z,6.90
2023-03-29T08:04:36.701Z,6.10
2023-03-29T08:07:31.355Z,7.10
2023-03-29T08:10:05.670Z,7.50
2023-03-29T08:12:52.327Z,6.60
2023-03-29T08:15:22.032Z,6.40
2023-03-29T08:17:51.494Z,7.30
2023-03-29T08:20:20.039Z,7.20
2023-03-29T08:22:49.535Z,7.40
2023-03-29T08:28:05.237Z,6.90
2023-03-29T08:30:42.526Z,6.60
2023-03-29T08:33:10.614Z,7.80
2023-03-29T08:35:38.707Z,6.80
2023-03-29T08:38:21.868Z,7.60
2023-03-29T08:40:52.065Z,7.70
2023-03-29T08:43:58.252Z,6.20
2023-03-29T08:47:15.915Z,6.90
2023-03-29T08:49:50.591Z,6.00
2023-03-29T08:52:42.995Z,6.40
2023-03-29T08:55:33.648Z,6.70
2023-03-29T09:09:33.869Z,5.80
2023-03-29T09:12:44.037Z,6.00
2023-03-29T09:15:25.136Z,6.40
2023-03-29T09:18:31.115Z,6.70
2023-03-29T09:21:03.375Z,6.20
2023-03-29T09:23:44.597Z,6.70
2023-03-29T09:26:32.830Z,6.80
2023-03-29T09:29:41.200Z,7.40
2023-03-29T09:32:22.550Z,6.50
2023-03-29T09:35:18.814Z,6.40
2023-03-29T09:37:50.554Z,6.50
2023-03-29T09:40:59.176Z,6.60
2023-03-29T09:43:41.510Z,7.20
2023-03-29T09:46:21.775Z,6.50
2023-03-29T09:48:50.838Z,7.00
2023-03-29T09:51:22.728Z,6.30
2023-03-29T09:53:50.737Z,7.40
2023-03-29T09:56:52.745Z,6.70
2023-03-29T09:59:22.183Z,6.90
2023-03-29T10:01:50.347Z,6.80
2023-03-29T10:04:18.914Z,5.90
2023-03-29T10:06:52.682Z,6.10
2023-03-29T10:09:24.161Z,4.00
2023-03-29T10:11:57.960Z,5.80
2023-03-29T10:14:37.111Z,5.30
2023-03-29T10:17:21.889Z,4.70
2023-03-29T10:19:57.122Z,4.50
2023-03-29T10:22:37.982Z,4.60
2023-03-29T10:25:14.066Z,4.70
2023-03-29T10:27:44.212Z,3.90
2023-03-29T10:30:21.446Z,4.20
2023-03-29T10:32:56.944Z,4.30
2023-03-29T10:35:30.122Z,5.10
2023-03-29T10:37:59.388Z,5.00
2023-03-29T10:40:29.458Z,4.10
2023-03-29T10:43:26.348Z,4.20
2023-03-29T10:45:56.903Z,4.20
2023-03-29T10:48:31.106Z,4.00
2023-03-29T10:51:05.849Z,3.80
2023-03-29T10:53:36.358Z,4.20
2023-03-29T10:56:13.909Z,3.80
2023-03-29T10:59:11.024Z,3.80
2023-03-29T11:04:34.611Z,3.90
2023-03-29T11:07:22.778Z,3.80
2023-03-29T11:10:14.705Z,3.50
2023-03-29T11:13:01.020Z,3.70
2023-03-29T11:18:02.413Z,3.30
2023-03-29T11:20:54.786Z,3.60
2023-03-29T11:23:44.006Z,2.40
2023-03-29T11:26:53.577Z,3.20
2023-03-29T11:29:28.678Z,3.20
2023-03-29T11:32:42.841Z,3.40
2023-03-29T11:35:23.301Z,2.40
2023-03-29T11:38:05.519Z,2.80
2023-03-29T11:41:01.695Z,2.90
2023-03-29T11:43:36.046Z,2.60
2023-03-29T11:46:41.941Z,2.00
2023-03-29T11:49:20.142Z,3.00
2023-03-29T11:52:06.183Z,3.30
2023-03-29T11:55:09.129Z,3.00
2023-03-29T11:57:46.452Z,2.80
2023-03-29T12:00:30.491Z,2.70
2023-03-29T12:03:07.226Z,3.10
2023-03-29T12:05:43.373Z,2.30
2023-03-29T12:08:18.864Z,2.70
2023-03-29T12:11:07.452Z,3.00
2023-03-29T12:13:44.839Z,2.80
2023-03-29T12:16:23.064Z,2.70
2023-03-29T12:18:56.452Z,2.40
2023-03-29T12:21:28.512Z,2.40
2023-03-29T12:23:58.183Z,2.50
2023-03-29T12:26:51.074Z,2.50
2023-03-29T12:29:43.848Z,2.80
2023-03-29T12:32:30.596Z,2.30
2023-03-29T12:35:25.945Z,1.80
2023-03-29T12:38:19.364Z,2.30
2023-03-29T12:41:19.258Z,2.90
2023-03-29T12:44:07.834Z,2.20
2023-03-29T12:46:44.268Z,2.30
2023-03-29T12:49:26.587Z,2.60
2023-03-29T12:51:57.922Z,2.20
2023-03-29T12:54:34.001Z,2.50
2023-03-29T12:57:26.412Z,2.90
2023-03-29T12:59:55.117Z,2.50
2023-03-29T13:02:23.114Z,2.90
2023-03-29T13:04:58.168Z,2.20
2023-03-29T13:07:29.064Z,2.50
2023-03-29T13:10:25.386Z,2.40
2023-03-29T13:12:54.617Z,2.20
2023-03-29T13:15:25.329Z,2.40
2023-03-29T13:18:15.222Z,2.20
2023-03-29T13:20:53.878Z,2.10
2023-03-29T13:23:54.984Z,2.50
2023-03-29T13:26:54.016Z,2.50
2023-03-29T13:29:40.038Z,3.60
2023-03-29T13:32:30.505Z,2.60
2023-03-29T13:36:03.622Z,2.80
2023-03-29T13:38:32.177Z,2.40
2023-03-29T13:41:07.436Z,2.10
2023-03-29T13:43:49.896Z,3.30
2023-03-29T13:46:40.283Z,3.60
2023-03-29T13:49:24.650Z,3.00
2023-03-29T13:52:16.365Z,2.60
2023-03-29T13:54:47.516Z,2.30
2023-03-29T13:57:32.413Z,2.90
2023-03-29T14:00:13.625Z,2.80
2023-03-29T14:02:48.084Z,3.70
2023-03-29T14:05:21.734Z,3.50
2023-03-29T14:07:53.439Z,2.60
2023-03-29T14:10:35.543Z,3.20
2023-03-29T14:13:04.654Z,3.40
2023-03-29T14:15:50.961Z,3.70
2023-03-29T14:18:23.255Z,3.50
2023-03-29T14:20:55.101Z,3.30
2023-03-29T14:23:26.125Z,3.50
2023-03-29T14:25:54.040Z,3.80
2023-03-29T14:28:25.086Z,3.00
2023-03-29T14:30:53.622Z,3.90
2023-03-29T14:33:34.631Z,4.00
2023-03-29T14:36:04.378Z,3.40
2023-03-29T14:38:32.877Z,3.50
2023-03-29T14:41:03.172Z,3.60
2023-03-29T14:43:32.200Z,3.40
2023-03-29T14:46:04.745Z,3.30
2023-03-29T14:48:34.913Z,3.80
2023-03-29T14:51:04.080Z,3.30
2023-03-29T14:53:34.499Z,3.50
2023-03-29T14:56:03.532Z,3.80
2023-03-29T14:58:34.416Z,3.50
2023-03-29T15:01:22.948Z,2.70
2023-03-29T15:04:02.228Z,3.10
2023-03-29T15:06:31.636Z,3.50
2023-03-29T15:09:06.556Z,3.00
2023-03-29T15:11:35.940Z,3.00
2023-03-29T15:14:12.624Z,2.90
2023-03-29T15:16:43.484Z,3.10
2023-03-29T15:19:17.955Z,3.00
2023-03-29T15:21:49.227Z,3.50
2023-03-29T15:24:28.070Z,3.40
2023-03-29T15:27:05.544Z,2.80
2023-03-29T15:29:41.751Z,3.20
2023-03-29T15:32:11.617Z,3.60
2023-03-29T15:34:39.750Z,3.70
2023-03-29T15:37:12.358Z,3.70
2023-03-29T15:39:44.533Z,5.10
2023-03-29T15:42:12.684Z,5.70
2023-03-29T15:44:41.240Z,3.50
2023-03-29T15:47:11.006Z,3.20
2023-03-29T15:49:39.644Z,3.80
2023-03-29T15:52:07.573Z,3.50
2023-03-29T15:54:37.294Z,4.10
2023-03-29T15:57:07.726Z,3.70
2023-03-29T16:08:36.520Z,4.30
2023-03-29T16:11:06.856Z,4.80
2023-03-29T16:13:35.573Z,4.10
2023-03-29T16:16:03.959Z,3.70
2023-03-29T16:18:32.192Z,3.60
2023-03-29T16:21:01.492Z,3.10
2023-03-29T16:23:29.405Z,3.10
2023-03-29T16:25:59.289Z,3.30
2023-03-29T16:28:28.361Z,4.20
2023-03-29T16:30:56.365Z,4.40
2023-03-29T16:33:24.362Z,3.90
2023-03-29T16:35:52.421Z,4.00
2023-03-29T16:38:21.797Z,4.80
2023-03-29T16:40:50.930Z,4.10
2023-03-29T16:43:19.014Z,4.30
2023-03-29T16:45:47.003Z,4.90
2023-03-29T16:48:18.070Z,4.40
2023-03-29T16:50:50.892Z,4.60
2023-03-29T16:53:20.004Z,4.50
2023-03-29T16:55:48.404Z,5.20
2023-03-29T16:58:17.172Z,4.60
2023-03-29T17:00:48.147Z,4.90
2023-03-29T17:03:17.031Z,4.50
2023-03-29T17:05:52.114Z,5.90
2023-03-29T17:08:21.530Z,8.90
2023-03-29T17:10:54.241Z,7.30
2023-03-29T17:13:24.062Z,8.80
2023-03-29T17:15:54.133Z,9.20
2023-03-29T17:18:24.658Z,7.90
2023-03-29T17:20:56.726Z,8.20
2023-03-29T17:23:25.700Z,9.70
2023-03-29T17:25:57.220Z,8.90
2023-03-29T17:28:25.273Z,8.80
2023-03-29T17:30:53.286Z,9.00
2023-03-29T17:33:22.800Z,9.40
2023-03-29T17:35:51.477Z,14.10
2023-03-29T17:38:19.722Z,18.60
2023-03-29T17:40:53.087Z,14.30
2023-03-29T17:43:21.596Z,16.20
2023-03-29T17:45:53.060Z,23.20
2023-03-29T17:48:21.643Z,21.70
2023-03-29T17:50:49.880Z,22.00
2023-03-29T17:53:37.508Z,17.20
2023-03-29T17:56:07.101Z,16.50
2023-03-29T17:58:35.710Z,14.80
2023-03-29T18:01:10.963Z,15.70
2023-03-29T18:03:39.472Z,14.40
2023-03-29T18:06:08.780Z,15.50
2023-03-29T18:08:36.761Z,15.40
2023-03-29T18:11:11.896Z,14.70
2023-03-29T18:13:40.033Z,14.30
2023-03-29T18:16:09.333Z,14.70
2023-03-29T18:18:38.582Z,15.00
2023-03-29T18:21:10.151Z,13.40
2023-03-29T18:23:40.011Z,12.40
2023-03-29T18:26:09.497Z,15.80
2023-03-29T18:28:37.666Z,19.10
2023-03-29T18:31:08.703Z,18.90
2023-03-29T18:33:36.703Z,18.40
2023-03-29T18:36:10.843Z,19.30
2023-03-29T18:38:43.403Z,20.60
2023-03-29T18:41:13.946Z,20.20
2023-03-29T18:43:43.283Z,19.90
2023-03-29T18:46:11.629Z,17.00
2023-03-29T18:48:40.959Z,14.30
2023-03-29T18:51:11.985Z,11.60
2023-03-29T18:53:43.040Z,11.40
2023-03-29T18:56:11.443Z,10.40
2023-03-29T18:58:39.826Z,10.70
2023-03-29T19:01:08.166Z,12.60
2023-03-29T19:03:37.035Z,12.30
2023-03-29T19:06:06.212Z,13.60
2023-03-29T19:08:37.521Z,11.70
2023-03-29T19:11:08.685Z,11.80
2023-03-29T19:13:36.949Z,12.50
2023-03-29T19:16:05.502Z,14.00
2023-03-29T19:18:33.880Z,11.10
2023-03-29T19:21:02.549Z,11.80
2023-03-29T19:23:30.756Z,11.80
2023-03-29T19:26:02.753Z,10.40
2023-03-29T19:28:32.606Z,11.00
2023-03-29T19:31:02.159Z,11.30
2023-03-29T19:33:30.556Z,11.70
2023-03-29T19:35:58.666Z,11.60
2023-03-29T19:38:26.689Z,11.30
2023-03-29T19:40:54.721Z,11.40
2023-03-29T19:43:24.917Z,10.70
2023-03-29T19:45:52.903Z,12.20
2023-03-29T19:48:23.471Z,11.00
2023-03-29T19:50:52.244Z,11.90
2023-03-29T19:53:20.215Z,12.50
2023-03-29T19:55:49.430Z,12.50
2023-03-29T19:58:17.483Z,12.60
2023-03-29T20:00:45.831Z,13.10
2023-03-29T20:03:15.738Z,13.00
2023-03-29T20:05:43.932Z,11.80
2023-03-29T20:08:12.107Z,12.40
2023-03-29T20:10:40.270Z,12.70
2023-03-29T20:13:08.303Z,13.80
2023-03-29T20:15:36.421Z,12.10
2023-03-29T20:18:06.524Z,14.30
2023-03-29T20:20:38.405Z,14.00
2023-03-29T20:23:06.485Z,14.50
2023-03-29T20:25:37.470Z,15.80
2023-03-29T20:28:06.587Z,14.70
2023-03-29T20:30:37.631Z,14.30
2023-03-29T20:33:07.410Z,13.00
2023-03-29T20:35:35.524Z,13.80
2023-03-29T20:38:03.714Z,14.50
2023-03-29T20:40:31.741Z,15.20
2023-03-29T20:42:59.651Z,14.60
2023-03-29T20:45:27.697Z,14.90
2023-03-29T20:48:02.163Z,13.90
2023-03-29T20:50:30.282Z,13.50
2023-03-29T20:53:02.377Z,13.90
2023-03-29T20:55:33.311Z,13.10
2023-03-29T20:58:02.391Z,13.90
2023-03-29T21:00:32.769Z,14.80
2023-03-29T21:03:03.742Z,14.60
2023-03-29T21:05:33.301Z,14.00
2023-03-29T21:08:02.515Z,13.30
2023-03-29T21:10:30.963Z,14.70
2023-03-29T21:13:02.611Z,15.40
2023-03-29T21:15:31.981Z,14.80
2023-03-29T21:18:00.152Z,15.90
2023-03-29T21:20:28.227Z,16.00
2023-03-29T21:22:56.264Z,15.10
2023-03-29T21:25:24.258Z,15.00
2023-03-29T21:27:52.268Z,14.60
2023-03-29T21:30:20.182Z,14.60
2023-03-29T21:32:48.282Z,15.40
2023-03-29T21:35:16.629Z,17.20
2023-03-29T21:37:45.015Z,13.90
2023-03-29T21:40:13.416Z,15.40
2023-03-29T21:42:41.382Z,15.50
2023-03-29T21:45:11.418Z,17.50
2023-03-29T21:47:39.488Z,14.10
2023-03-29T21:50:07.735Z,14.40
2023-03-29T21:52:37.790Z,14.20
2023-03-29T21:55:06.746Z,14.60
2023-03-29T21:57:34.668Z,14.00
2023-03-29T22:00:03.689Z,13.70
2023-03-29T22:02:38.726Z,13.20
2023-03-29T22:05:13.941Z,12.70
2023-03-29T22:07:42.095Z,13.70
2023-03-29T22:10:13.243Z,13.40
2023-03-29T22:12:41.432Z,13.90
2023-03-29T22:15:13.202Z,13.20
2023-03-29T22:17:43.107Z,13.50
2023-03-29T22:20:14.968Z,14.10
2023-03-29T22:22:49.839Z,12.60
2023-03-29T22:25:19.414Z,13.00
2023-03-29T22:27:48.096Z,13.30
2023-03-29T22:30:17.394Z,12.80
2023-03-29T22:32:45.509Z,13.40
2023-03-29T22:35:13.597Z,14.50
2023-03-29T22:37:43.428Z,13.10
2023-03-29T22:40:12.486Z,13.20
2023-03-29T22:42:40.680Z,13.40
2023-03-29T22:45:09.255Z,12.90
2023-03-29T22:47:41.609Z,13.60
2023-03-29T22:50:10.317Z,13.00
2023-03-29T22:52:38.269Z,13.90
2023-03-29T22:55:06.744Z,13.60
2023-03-29T22:57:34.782Z,12.30
2023-03-29T23:00:06.958Z,12.60
2023-03-29T23:02:34.954Z,12.30
2023-03-29T23:05:03.036Z,13.40
2023-03-29T23:07:31.030Z,12.60
2023-03-29T23:09:59.123Z,11.40
2023-03-29T23:12:27.140Z,12.50
2023-03-29T23:14:55.996Z,11.40
2023-03-29T23:17:24.022Z,10.70
2023-03-29T23:19:52.101Z,10.90
2023-03-29T23:22:20.014Z,10.60
2023-03-29T23:24:48.146Z,10.40
2023-03-29T23:27:16.480Z,11.30
2023-03-29T23:29:45.692Z,11.80
2023-03-29T23:32:15.751Z,10.90
2023-03-29T23:34:44.599Z,10.60
2023-03-29T23:37:12.604Z,11.40
2023-03-29T23:39:40.651Z,10.10
2023-03-29T23:42:08.584Z,10.50
2023-03-29T23:44:37.783Z,11.10
2023-03-29T23:47:06.286Z,10.60
2023-03-29T23:49:34.391Z,9.90
2023-03-29T23:52:02.720Z,10.70
2023-03-29T23:54:31.893Z,11.10
2023-03-29T23:57:00.339Z,12.10
2023-03-29T23:59:30.735Z,10.70
